Time;durP1;ratioP1;P1;durP2;ratioP2;P2;SDS_P1;SDS_P2;PMS_P1;PMS_P2;Temp;Humidity;BMP_temperature;BMP_pressure;BME280_temperature;BME280_humidity;BME280_pressure;Samples;Min_cycle;Max_cycle;Signal;HPM_P1;HPM_P2
2023/01/20 00:00:36;;;;;;;5.63;3.80;;;-0.40;98.30;;;;;;4986539;28;20042;-87
2023/01/20 00:03:02;;;;;;;7.47;3.67;;;-0.40;98.50;;;;;;4979515;28;20185;-85
2023/01/20 00:05:27;;;;;;;6.87;3.50;;;-0.40;98.40;;;;;;4979874;28;20094;-87
2023/01/20 00:07:53;;;;;;;6.77;3.90;;;-0.40;98.40;;;;;;4977355;28;20443;-84
2023/01/20 00:10:18;;;;;;;6.93;3.43;;;-0.40;98.40;;;;;;4961027;28;20058;-86
2023/01/20 00:12:44;;;;;;;6.57;3.60;;;-0.50;98.40;;;;;;4980670;28;20046;-87
2023/01/20 00:15:10;;;;;;;7.50;3.60;;;-0.50;98.50;;;;;;4980604;28;20105;-83
2023/01/20 00:17:36;;;;;;;8.23;4.00;;;-0.50;98.40;;;;;;4979897;28;20049;-86
2023/01/20 00:20:02;;;;;;;11.97;4.00;;;-0.50;98.50;;;;;;4963325;28;20410;-87
2023/01/20 00:22:28;;;;;;;8.47;3.90;;;-0.50;98.50;;;;;;4982001;28;20061;-88
2023/01/20 00:24:53;;;;;;;8.57;4.10;;;-0.50;98.40;;;;;;4976612;28;20047;-86
2023/01/20 00:27:19;;;;;;;8.03;4.43;;;-0.50;98.50;;;;;;4978378;28;20034;-85
2023/01/20 00:29:45;;;;;;;7.30;4.43;;;-0.60;98.50;;;;;;4977157;28;20518;-85
2023/01/20 00:32:11;;;;;;;10.77;4.60;;;-0.60;98.50;;;;;;4976168;28;20089;-83
2023/01/20 00:34:37;;;;;;;8.27;3.80;;;-0.60;98.50;;;;;;4978831;28;20104;-83
2023/01/20 00:37:04;;;;;;;9.00;4.17;;;-0.60;98.70;;;;;;4979652;28;20615;-85
2023/01/20 00:39:29;;;;;;;21.17;4.47;;;-0.70;98.60;;;;;;4980048;28;20073;-85
2023/01/20 00:41:55;;;;;;;5.90;4.33;;;-0.60;98.80;;;;;;4980294;28;20478;-88
2023/01/20 00:44:20;;;;;;;5.37;4.20;;;-0.60;98.90;;;;;;4977561;28;20045;-85
2023/01/20 00:46:46;;;;;;;9.73;4.70;;;-0.60;99.00;;;;;;4980205;28;20124;-89
2023/01/20 00:49:11;;;;;;;93.43;7.77;;;-0.60;98.90;;;;;;4977022;28;20077;-85
2023/01/20 00:51:37;;;;;;;9.13;5.20;;;-0.40;99.00;;;;;;4978740;28;20035;-86
2023/01/20 00:54:03;;;;;;;8.10;4.30;;;-0.50;99.10;;;;;;4979556;28;20034;-88
2023/01/20 00:56:29;;;;;;;9.90;5.20;;;-0.40;99.10;;;;;;4980008;28;20088;-82
2023/01/20 00:58:54;;;;;;;12.17;5.23;;;-0.40;99.00;;;;;;4955327;28;20511;-87
2023/01/20 01:01:21;;;;;;;9.33;5.50;;;-0.30;99.00;;;;;;4971672;28;20755;-88
2023/01/20 01:03:47;;;;;;;12.83;6.77;;;-0.30;99.00;;;;;;4973386;28;20051;-89
2023/01/20 01:06:15;;;;;;;13.43;7.40;;;-0.20;99.20;;;;;;4959522;28;20160;-88
2023/01/20 01:08:42;;;;;;;16.35;7.45;;;-0.20;99.20;;;;;;4977016;28;20042;-88
2023/01/20 01:11:07;;;;;;;15.10;7.57;;;-0.10;99.20;;;;;;4975865;28;20042;-89
2023/01/20 01:13:34;;;;;;;158.33;13.37;;;-0.10;99.20;;;;;;4976001;28;20587;-83
2023/01/20 01:16:00;;;;;;;25.60;9.67;;;-0.10;99.20;;;;;;4979170;28;20146;-86
2023/01/20 01:18:25;;;;;;;19.30;9.90;;;-0.10;99.20;;;;;;4981289;28;20398;-86
2023/01/20 01:20:51;;;;;;;19.53;10.17;;;0.00;99.60;;;;;;4959317;28;20047;-86
2023/01/20 01:23:16;;;;;;;22.77;11.20;;;0.00;99.30;;;;;;4979270;28;20048;-82
2023/01/20 01:25:42;;;;;;;31.87;11.97;;;0.00;99.30;;;;;;4977874;28;20525;-87
2023/01/20 01:28:08;;;;;;;24.40;11.90;;;0.00;99.30;;;;;;4978095;28;20034;-87
2023/01/20 01:30:33;;;;;;;224.87;20.00;;;0.00;99.40;;;;;;4973033;28;20117;-85
2023/01/20 01:32:59;;;;;;;54.27;14.77;;;0.10;99.40;;;;;;4975190;28;20062;-88
2023/01/20 01:35:25;;;;;;;30.53;13.90;;;0.10;99.40;;;;;;4976741;28;20054;-89
2023/01/20 01:37:50;;;;;;;31.77;14.00;;;0.10;99.50;;;;;;4973748;28;20056;-84
2023/01/20 01:40:17;;;;;;;39.20;15.13;;;0.10;99.40;;;;;;4968784;28;20073;-80
2023/01/20 01:42:42;;;;;;;36.10;15.57;;;0.10;99.30;;;;;;4977199;28;20050;-79
2023/01/20 01:45:11;;;;;;;37.43;15.87;;;0.10;99.40;;;;;;4954829;28;20580;-83
2023/01/20 01:47:52;;;;;;;91.43;18.38;;;0.10;99.40;;;;;;4979154;28;20039;-89
2023/01/20 01:50:21;;;;;;;52.27;16.53;;;0.10;99.40;;;;;;4976111;28;20522;-89
2023/01/20 01:52:51;;;;;;;44.13;17.93;;;0.10;99.50;;;;;;4961275;28;20374;-80
2023/01/20 01:55:26;;;;;;;75.70;18.77;;;0.20;99.50;;;;;;4973255;28;20112;-80
2023/01/20 01:57:53;;;;;;;40.40;17.70;;;0.20;99.50;;;;;;4976925;28;20079;-83
2023/01/20 02:00:19;;;;;;;40.27;18.07;;;0.20;99.40;;;;;;4977489;28;20042;-88
2023/01/20 02:02:44;;;;;;;34.17;16.97;;;0.20;99.50;;;;;;4976333;28;20772;-88
2023/01/20 02:05:13;;;;;;;38.13;18.43;;;0.20;99.50;;;;;;4960761;28;20068;-86
2023/01/20 02:07:41;;;;;;;36.67;18.05;;;0.20;99.40;;;;;;4976403;28;20089;-89
2023/01/20 02:10:07;;;;;;;38.17;18.65;;;0.20;99.50;;;;;;4975174;28;20080;-89
2023/01/20 02:12:33;;;;;;;63.47;19.57;;;0.20;99.40;;;;;;4976834;28;20046;-89
2023/01/20 02:15:02;;;;;;;39.90;19.00;;;0.20;99.50;;;;;;4981347;28;20038;-88
2023/01/20 02:18:06;;;;;;;80.97;20.08;;;0.20;99.50;;;;;;4971454;28;20042;-89
2023/01/20 02:21:23;;;;;;;37.13;18.10;;;0.30;99.50;;;;;;4971452;28;20042;-87
2023/01/20 02:24:01;;;;;;;31.10;16.70;;;0.30;99.50;;;;;;4975043;28;20085;-89
2023/01/20 02:27:01;;;;;;;79.63;19.20;;;0.30;99.50;;;;;;4978886;28;20676;-81
2023/01/20 02:29:45;;;;;;;38.63;18.13;;;0.40;99.50;;;;;;4974395;28;20133;-82
2023/01/20 02:32:36;;;;;;;31.67;16.67;;;0.30;99.40;;;;;;4978029;28;20414;-85
2023/01/20 02:35:14;;;;;;;37.40;17.17;;;0.30;99.40;;;;;;4974942;28;20045;-83
2023/01/20 02:37:50;;;;;;;31.90;17.87;;;0.40;99.40;;;;;;4970197;28;20042;-86
2023/01/20 02:40:43;;;;;;;30.47;17.57;;;0.40;99.40;;;;;;4977484;28;20046;-88
2023/01/20 02:43:40;;;;;;;28.60;17.27;;;0.40;99.30;;;;;;4976714;28;20046;-87
2023/01/20 02:46:38;;;;;;;29.87;17.43;;;0.40;99.30;;;;;;4976433;28;20148;-87
2023/01/20 02:49:22;;;;;;;29.65;17.60;;;0.40;99.30;;;;;;4959264;28;20057;-88
2023/01/20 02:52:05;;;;;;;33.93;18.47;;;0.40;99.30;;;;;;4976227;28;20556;-84
2023/01/20 02:54:35;;;;;;;39.97;19.63;;;0.40;99.30;;;;;;4975729;28;20042;-81
2023/01/20 02:57:04;;;;;;;35.10;19.70;;;0.40;99.30;;;;;;4976677;28;20561;-88
2023/01/20 02:59:35;;;;;;;36.77;18.83;;;0.40;99.30;;;;;;4974403;28;20529;-83
2023/01/20 03:02:07;;;;;;;35.33;19.30;;;0.40;99.30;;;;;;4961861;28;20105;-86
2023/01/20 03:04:39;;;;;;;37.90;19.13;;;0.40;99.30;;;;;;4977419;28;20584;-85
2023/01/20 03:07:08;;;;;;;38.93;20.27;;;0.40;99.30;;;;;;4979501;28;20038;-87
2023/01/20 03:09:40;;;;;;;39.30;20.50;;;0.40;99.30;;;;;;4973901;28;20116;-87
2023/01/20 03:12:15;;;;;;;42.07;21.40;;;0.40;99.30;;;;;;4977826;28;20544;-84
2023/01/20 03:14:40;;;;;;;100.13;24.07;;;0.40;99.30;;;;;;4974866;28;20097;-82
2023/01/20 03:17:06;;;;;;;61.13;22.57;;;0.40;99.30;;;;;;4992176;28;20031;-84
2023/01/20 03:19:31;;;;;;;36.70;21.20;;;0.40;99.20;;;;;;4974327;28;20520;-81
2023/01/20 03:21:57;;;;;;;37.73;20.43;;;0.40;99.30;;;;;;4978069;28;20530;-79
2023/01/20 03:24:24;;;;;;;33.53;20.40;;;0.30;99.20;;;;;;4975213;28;20046;-81
2023/01/20 03:26:50;;;;;;;40.37;21.37;;;0.40;99.20;;;;;;4976852;28;20186;-88
2023/01/20 03:29:17;;;;;;;255.37;29.17;;;0.30;99.20;;;;;;4975385;28;20042;-88
2023/01/20 03:31:50;;;;;;;40.77;20.90;;;0.30;99.10;;;;;;4977818;28;20038;-86
2023/01/20 03:34:20;;;;;;;35.60;20.50;;;0.30;99.10;;;;;;4973677;28;20057;-86
2023/01/20 03:36:46;;;;;;;35.60;20.60;;;0.30;99.10;;;;;;4978557;28;20618;-84
2023/01/20 03:39:12;;;;;;;32.20;20.07;;;0.20;99.10;;;;;;4979934;28;20046;-87
2023/01/20 03:41:47;;;;;;;36.87;22.07;;;0.20;99.10;;;;;;4981001;28;20053;-88
2023/01/20 03:44:41;;;;;;;115.23;25.00;;;0.20;99.10;;;;;;4979822;28;20412;-88
2023/01/20 03:47:09;;;;;;;39.67;20.30;;;0.20;99.00;;;;;;4979630;28;20053;-82
2023/01/20 03:49:50;;;;;;;38.17;21.63;;;0.20;99.00;;;;;;4982321;28;20057;-82
2023/01/20 03:52:37;;;;;;;38.37;19.50;;;0.20;99.00;;;;;;4976908;28;21917;-81
2023/01/20 03:55:10;;;;;;;39.60;21.07;;;0.20;99.00;;;;;;4976808;28;20125;-88
2023/01/20 03:57:42;;;;;;;38.57;21.10;;;0.20;99.00;;;;;;4974771;28;20442;-88
2023/01/20 04:00:10;;;;;;;37.53;21.63;;;0.20;99.00;;;;;;4974655;28;20027;-79
2023/01/20 04:02:38;;;;;;;40.83;22.93;;;0.20;99.00;;;;;;4977905;28;20141;-83
2023/01/20 04:05:06;;;;;;;42.90;22.73;;;0.20;99.00;;;;;;4980809;28;20157;-86
2023/01/20 04:07:32;;;;;;;47.50;23.25;;;0.20;99.00;;;;;;4979639;28;20130;-83
2023/01/20 04:10:04;;;;;;;46.73;23.77;;;0.20;99.00;;;;;;4980246;28;20129;-86
2023/01/20 04:12:30;;;;;;;52.90;24.53;;;0.20;99.00;;;;;;4978705;28;20092;-83
2023/01/20 04:14:56;;;;;;;48.77;25.80;;;0.20;99.00;;;;;;4975139;28;20046;-86
2023/01/20 04:17:29;;;;;;;50.13;24.10;;;0.20;99.00;;;;;;4978008;28;20049;-86
2023/01/20 04:19:55;;;;;;;53.90;25.47;;;0.20;99.00;;;;;;4980780;28;20050;-86
2023/01/20 04:22:33;;;;;;;43.37;22.00;;;0.30;98.90;;;;;;4979773;28;20116;-84
2023/01/20 04:25:19;;;;;;;46.10;22.37;;;0.30;99.00;;;;;;4996596;28;20050;-79
2023/01/20 04:27:45;;;;;;;52.27;23.93;;;0.30;99.00;;;;;;4975929;28;20515;-84
2023/01/20 04:30:13;;;;;;;50.42;22.77;;;0.30;98.90;;;;;;4979302;28;20053;-87
2023/01/20 04:32:42;;;;;;;44.05;22.13;;;0.30;98.90;;;;;;4975841;28;20049;-82
2023/01/20 04:35:12;;;;;;;47.93;22.47;;;0.30;98.90;;;;;;4977237;28;20050;-84
2023/01/20 04:37:37;;;;;;;44.10;21.27;;;0.30;98.90;;;;;;4973148;28;20380;-87
2023/01/20 04:40:03;;;;;;;46.90;21.73;;;0.30;98.90;;;;;;4974774;28;20546;-86
2023/01/20 04:42:29;;;;;;;49.77;20.60;;;0.30;98.90;;;;;;4969757;28;20050;-87
2023/01/20 04:44:54;;;;;;;41.87;20.47;;;0.30;98.90;;;;;;4977407;28;20054;-86
2023/01/20 04:47:20;;;;;;;42.93;21.50;;;0.30;98.90;;;;;;4968882;28;20046;-81
2023/01/20 04:49:45;;;;;;;78.73;22.80;;;0.30;98.80;;;;;;4984796;28;20042;-84
2023/01/20 04:52:11;;;;;;;40.17;20.63;;;0.30;98.80;;;;;;4973810;28;20047;-81
2023/01/20 04:54:37;;;;;;;42.53;21.07;;;0.30;98.70;;;;;;4974807;28;20414;-87
2023/01/20 04:57:02;;;;;;;44.07;20.43;;;0.30;98.80;;;;;;4980419;28;20100;-87
2023/01/20 04:59:28;;;;;;;66.43;21.37;;;0.30;98.80;;;;;;4932949;28;20046;-81
2023/01/20 05:01:53;;;;;;;38.83;19.53;;;0.30;98.80;;;;;;4978320;28;20069;-82
2023/01/20 05:04:19;;;;;;;44.03;20.57;;;0.30;98.80;;;;;;4964533;28;20494;-87
2023/01/20 05:06:45;;;;;;;37.73;19.13;;;0.20;98.70;;;;;;4979371;28;20508;-87
2023/01/20 05:09:15;;;;;;;42.13;19.30;;;0.30;98.70;;;;;;4960561;28;20890;-82
2023/01/20 05:11:41;;;;;;;42.27;20.33;;;0.20;98.70;;;;;;4977376;28;20044;-78
2023/01/20 05:14:07;;;;;;;42.50;20.10;;;0.30;98.80;;;;;;4974460;28;20464;-87
2023/01/20 05:16:33;;;;;;;41.47;19.97;;;0.30;98.80;;;;;;4971778;28;20038;-79
2023/01/20 05:19:00;;;;;;;39.97;18.93;;;0.30;98.80;;;;;;4975347;28;20112;-79
2023/01/20 05:21:26;;;;;;;36.73;18.50;;;0.30;98.80;;;;;;4995690;28;20104;-81
2023/01/20 05:23:55;;;;;;;36.67;19.63;;;0.30;98.70;;;;;;4975323;28;20050;-79
2023/01/20 05:26:23;;;;;;;40.50;20.40;;;0.30;98.70;;;;;;4980681;28;20043;-86
2023/01/20 05:28:48;;;;;;;37.63;19.60;;;0.30;98.70;;;;;;4976546;28;20152;-85
2023/01/20 05:31:14;;;;;;;40.63;20.20;;;0.30;98.70;;;;;;4980008;28;20038;-84
2023/01/20 05:33:40;;;;;;;39.40;19.60;;;0.30;98.60;;;;;;4975179;28;20049;-83
2023/01/20 05:36:06;;;;;;;42.10;19.40;;;0.20;98.60;;;;;;4976735;28;20390;-85
2023/01/20 05:38:32;;;;;;;42.47;20.93;;;0.30;98.70;;;;;;4958643;28;20046;-87
2023/01/20 05:41:02;;;;;;;39.97;20.20;;;0.20;98.70;;;;;;4975238;28;20038;-86
2023/01/20 05:43:27;;;;;;;42.33;19.37;;;0.20;98.70;;;;;;4993647;28;20108;-86
2023/01/20 05:45:53;;;;;;;39.33;18.87;;;0.30;98.70;;;;;;4973555;28;20050;-86
2023/01/20 05:48:21;;;;;;;38.65;18.13;;;0.30;98.70;;;;;;4979528;28;20042;-86
2023/01/20 05:50:47;;;;;;;36.53;19.20;;;0.20;98.70;;;;;;4977650;28;20053;-79
2023/01/20 05:53:13;;;;;;;38.33;18.83;;;0.30;98.70;;;;;;4973784;28;20048;-86
2023/01/20 05:55:39;;;;;;;38.67;19.57;;;0.30;98.60;;;;;;4971279;28;20043;-86
2023/01/20 05:58:05;;;;;;;40.73;19.43;;;0.20;98.60;;;;;;4974393;28;20046;-84
2023/01/20 06:00:31;;;;;;;34.17;18.60;;;0.30;98.60;;;;;;4977184;28;21737;-84
2023/01/20 06:02:57;;;;;;;39.40;19.83;;;0.30;98.60;;;;;;4942833;28;20062;-81
2023/01/20 06:05:22;;;;;;;34.37;19.50;;;0.30;98.60;;;;;;4962850;28;20050;-85
2023/01/20 06:07:48;;;;;;;38.13;20.10;;;0.30;98.60;;;;;;4961204;28;20030;-86
2023/01/20 06:10:15;;;;;;;35.23;20.20;;;0.30;98.50;;;;;;4975778;28;20069;-87
2023/01/20 06:12:41;;;;;;;37.70;20.33;;;0.30;98.50;;;;;;4974555;28;20061;-86
2023/01/20 06:15:07;;;;;;;36.87;20.20;;;0.20;98.40;;;;;;4967824;28;20406;-83
2023/01/20 06:17:33;;;;;;;41.80;20.63;;;0.30;98.40;;;;;;4977194;28;20042;-87
2023/01/20 06:19:59;;;;;;;39.67;20.80;;;0.30;98.40;;;;;;4975416;28;20053;-87
2023/01/20 06:22:25;;;;;;;36.97;20.83;;;0.20;98.40;;;;;;4980008;28;20058;-87
2023/01/20 06:24:51;;;;;;;37.30;20.83;;;0.20;98.40;;;;;;4975603;28;20871;-86
2023/01/20 06:27:17;;;;;;;43.67;22.67;;;0.30;98.40;;;;;;4977691;28;20042;-83
2023/01/20 06:29:43;;;;;;;39.57;21.53;;;0.20;98.40;;;;;;4977728;28;20034;-84
2023/01/20 06:32:09;;;;;;;36.87;20.97;;;0.30;98.40;;;;;;4973468;28;20054;-87
2023/01/20 06:34:35;;;;;;;38.03;20.77;;;0.20;98.40;;;;;;4976126;28;20042;-87
2023/01/20 06:37:02;;;;;;;38.60;21.23;;;0.20;98.40;;;;;;4974525;28;20618;-85
2023/01/20 06:39:28;;;;;;;42.97;22.50;;;0.20;98.40;;;;;;4971135;28;20086;-88
2023/01/20 06:41:57;;;;;;;38.87;21.20;;;0.30;98.40;;;;;;4977341;28;20059;-86
2023/01/20 06:44:23;;;;;;;39.83;23.00;;;0.20;98.40;;;;;;4974547;28;20039;-86
2023/01/20 06:46:49;;;;;;;43.47;23.00;;;0.30;98.40;;;;;;4974413;28;20046;-83
2023/01/20 06:49:14;;;;;;;45.33;23.20;;;0.30;98.40;;;;;;4964061;28;20045;-80
2023/01/20 06:51:40;;;;;;;44.77;22.37;;;0.30;98.40;;;;;;4974379;28;20130;-85
2023/01/20 06:54:06;;;;;;;44.53;23.03;;;0.30;98.40;;;;;;4974542;28;20034;-83
2023/01/20 06:56:32;;;;;;;45.40;22.87;;;0.30;98.30;;;;;;4977343;28;20081;-85
2023/01/20 06:58:57;;;;;;;47.40;23.13;;;0.30;98.40;;;;;;4977559;28;21561;-80
2023/01/20 07:01:25;;;;;;;46.87;23.53;;;0.30;98.30;;;;;;4959160;28;20093;-86
2023/01/20 07:03:52;;;;;;;45.58;23.42;;;0.30;98.30;;;;;;4971920;28;20065;-84
2023/01/20 07:06:29;;;;;;;50.57;24.50;;;0.30;98.30;;;;;;4979484;28;20053;-80
2023/01/20 07:08:56;;;;;;;45.67;23.80;;;0.30;98.40;;;;;;4980847;28;20039;-84
2023/01/20 07:11:22;;;;;;;45.53;24.07;;;0.30;98.40;;;;;;4976822;28;20062;-86
2023/01/20 07:13:47;;;;;;;48.17;23.40;;;0.40;98.40;;;;;;4972480;28;20058;-86
2023/01/20 07:16:13;;;;;;;44.17;23.33;;;0.40;98.40;;;;;;4980057;28;20449;-83
2023/01/20 07:18:39;;;;;;;44.73;23.30;;;0.40;98.40;;;;;;4981164;28;20065;-86
2023/01/20 07:21:05;;;;;;;49.07;24.77;;;0.40;98.30;;;;;;4979953;28;20108;-88
2023/01/20 07:23:32;;;;;;;45.37;24.70;;;0.40;98.30;;;;;;4985417;28;20046;-85
2023/01/20 07:26:10;;;;;;;46.90;23.83;;;0.40;98.30;;;;;;4976783;28;20054;-86
2023/01/20 07:28:36;;;;;;;49.03;25.80;;;0.40;98.20;;;;;;4978676;28;20058;-87
2023/01/20 07:31:09;;;;;;;50.07;25.53;;;0.40;98.20;;;;;;4976524;28;20434;-80
2023/01/20 07:33:35;;;;;;;49.77;26.10;;;0.40;98.20;;;;;;4979250;28;20053;-85
2023/01/20 07:36:01;;;;;;;54.33;26.20;;;0.40;98.20;;;;;;4982446;28;20050;-88
2023/01/20 07:38:28;;;;;;;48.73;25.67;;;0.40;98.10;;;;;;4971451;28;20039;-87
2023/01/20 07:41:00;;;;;;;49.87;26.47;;;0.40;98.20;;;;;;4979814;28;20038;-86
2023/01/20 07:43:26;;;;;;;54.30;25.90;;;0.40;98.10;;;;;;4978204;28;20096;-85
2023/01/20 07:45:56;;;;;;;54.83;26.03;;;0.40;98.40;;;;;;4971107;28;20684;-87
2023/01/20 07:48:23;;;;;;;53.43;26.90;;;0.40;98.00;;;;;;4980703;28;20070;-84
2023/01/20 07:51:02;;;;;;;57.37;28.60;;;0.40;98.00;;;;;;4977812;28;20038;-80
2023/01/20 07:53:33;;;;;;;53.97;28.00;;;0.40;98.00;;;;;;4978880;28;20059;-86
2023/01/20 07:56:10;;;;;;;51.97;27.73;;;0.50;98.10;;;;;;4960340;28;20050;-86
2023/01/20 07:58:36;;;;;;;48.57;28.07;;;0.50;98.00;;;;;;4976619;28;20062;-79
2023/01/20 08:01:29;;;;;;;49.30;26.60;;;0.50;98.00;;;;;;4979953;28;20046;-82
2023/01/20 08:03:56;;;;;;;54.70;28.60;;;0.40;97.90;;;;;;4969227;28;20063;-85
2023/01/20 08:06:24;;;;;;;50.33;27.07;;;0.50;98.00;;;;;;4980054;28;20050;-85
2023/01/20 08:08:50;;;;;;;51.87;26.77;;;0.50;97.90;;;;;;4977022;28;20044;-82
2023/01/20 08:11:17;;;;;;;57.77;28.47;;;0.50;97.90;;;;;;4981848;28;20115;-87
2023/01/20 08:13:44;;;;;;;54.73;28.03;;;0.50;97.90;;;;;;4979097;28;20117;-87
2023/01/20 08:16:13;;;;;;;55.10;29.00;;;0.50;97.80;;;;;;4977969;28;20153;-81
2023/01/20 08:18:40;;;;;;;53.27;28.70;;;0.50;97.70;;;;;;4974820;28;20573;-85
2023/01/20 08:21:07;;;;;;;55.03;29.90;;;0.50;97.70;;;;;;4959099;28;20097;-80
2023/01/20 08:23:34;;;;;;;56.73;27.80;;;0.50;97.70;;;;;;4979424;28;20086;-87
2023/01/20 08:26:02;;;;;;;57.27;28.80;;;0.60;97.80;;;;;;4972291;28;20031;-81
2023/01/20 08:28:29;;;;;;;50.70;27.47;;;0.60;97.90;;;;;;4972097;28;20129;-83
2023/01/20 08:31:02;;;;;;;56.33;28.27;;;0.60;97.80;;;;;;4990580;28;20446;-85
2023/01/20 08:33:28;;;;;;;57.03;29.10;;;0.70;97.70;;;;;;4975950;28;20043;-87
2023/01/20 08:35:55;;;;;;;52.43;29.37;;;0.70;97.60;;;;;;4977979;28;20044;-84
2023/01/20 08:38:21;;;;;;;49.43;27.70;;;0.70;97.60;;;;;;4972198;28;20166;-86
2023/01/20 08:40:46;;;;;;;50.43;27.40;;;0.70;97.50;;;;;;4978882;28;22168;-86
2023/01/20 08:43:14;;;;;;;50.43;28.47;;;0.70;97.30;;;;;;4978071;28;20038;-83
2023/01/20 08:45:42;;;;;;;52.77;28.30;;;0.70;97.20;;;;;;4977957;28;20045;-84
2023/01/20 08:48:08;;;;;;;54.70;28.43;;;0.80;97.10;;;;;;4975778;28;20132;-85
2023/01/20 08:50:34;;;;;;;51.20;27.77;;;0.80;97.20;;;;;;4980621;28;20558;-83
2023/01/20 08:53:00;;;;;;;54.90;29.50;;;0.80;97.20;;;;;;4977008;28;20042;-83
2023/01/20 08:55:25;;;;;;;53.47;28.47;;;0.80;97.30;;;;;;4977583;28;20422;-79
2023/01/20 08:57:51;;;;;;;50.97;27.50;;;0.90;97.40;;;;;;4981399;28;20038;-85
2023/01/20 09:00:17;;;;;;;56.00;27.77;;;0.90;97.20;;;;;;4976156;28;20133;-82
2023/01/20 09:02:42;;;;;;;56.83;28.90;;;0.90;97.10;;;;;;4973947;28;20104;-84
2023/01/20 09:05:08;;;;;;;52.50;28.47;;;0.90;97.10;;;;;;4975900;28;20054;-83
2023/01/20 09:07:35;;;;;;;52.03;27.73;;;0.90;97.10;;;;;;4981041;28;20502;-85
2023/01/20 09:10:00;;;;;;;55.93;27.57;;;0.90;97.10;;;;;;4977181;28;20126;-84
2023/01/20 09:12:26;;;;;;;51.07;28.40;;;0.90;97.20;;;;;;4978966;28;20042;-79
2023/01/20 09:14:51;;;;;;;54.57;29.10;;;0.90;96.90;;;;;;4976700;28;20628;-85
2023/01/20 09:17:17;;;;;;;51.43;28.00;;;1.00;96.90;;;;;;4979721;28;20045;-80
2023/01/20 09:19:42;;;;;;;51.27;28.60;;;0.90;96.80;;;;;;4980500;28;20038;-88
2023/01/20 09:22:08;;;;;;;53.53;29.13;;;0.90;96.70;;;;;;4978214;28;20093;-83
2023/01/20 09:24:33;;;;;;;56.07;29.93;;;0.90;96.70;;;;;;4976372;28;20050;-84
2023/01/20 09:26:59;;;;;;;53.23;29.57;;;0.90;96.90;;;;;;4977594;28;20826;-85
2023/01/20 09:29:24;;;;;;;59.27;29.93;;;0.90;96.80;;;;;;4976646;28;20054;-87
2023/01/20 09:31:56;;;;;;;67.03;31.27;;;1.00;97.10;;;;;;4975902;28;20047;-80
2023/01/20 09:34:23;;;;;;;56.13;30.67;;;1.00;96.90;;;;;;4974952;28;20086;-79
2023/01/20 09:36:54;;;;;;;62.03;30.57;;;1.00;96.80;;;;;;4980076;28;20088;-86
2023/01/20 09:45:51;;;;;;;58.73;30.20;;;0.90;96.90;;;;;;4978569;28;20054;-80
2023/01/20 09:54:42;;;;;;;60.00;29.67;;;1.00;96.60;;;;;;4973683;28;20443;-81
2023/01/20 09:57:13;;;;;;;62.53;30.07;;;1.00;96.50;;;;;;4978486;28;20656;-85
2023/01/20 09:59:46;;;;;;;65.27;31.23;;;1.00;96.60;;;;;;4975555;28;20557;-80
2023/01/20 10:02:25;;;;;;;60.40;30.47;;;1.00;96.70;;;;;;4976361;28;20053;-80
2023/01/20 10:04:57;;;;;;;65.55;32.17;;;1.00;96.80;;;;;;4974615;28;20046;-84
2023/01/20 10:07:37;;;;;;;66.60;31.60;;;1.00;96.80;;;;;;4977509;28;20054;-85
2023/01/20 10:10:13;;;;;;;68.83;31.90;;;0.90;96.80;;;;;;4977412;28;20082;-83
2023/01/20 10:12:52;;;;;;;62.50;30.77;;;1.00;96.90;;;;;;4977892;28;20120;-82
2023/01/20 10:15:24;;;;;;;64.13;30.53;;;1.00;96.70;;;;;;4977515;28;20045;-83
2023/01/20 10:17:57;;;;;;;62.07;31.97;;;1.00;96.70;;;;;;4977755;28;20069;-81
2023/01/20 10:20:48;;;;;;;58.97;29.47;;;1.00;96.70;;;;;;4976868;28;20076;-80
2023/01/20 10:23:23;;;;;;;63.60;30.30;;;1.00;96.70;;;;;;4971429;28;20057;-84
2023/01/20 10:26:00;;;;;;;63.97;31.40;;;1.10;96.60;;;;;;4974151;28;20055;-84
2023/01/20 10:28:28;;;;;;;64.77;31.53;;;1.20;96.60;;;;;;4977680;28;20051;-85
2023/01/20 10:31:00;;;;;;;65.38;30.83;;;1.10;96.60;;;;;;4975219;28;20047;-81
2023/01/20 10:33:31;;;;;;;64.60;31.57;;;1.10;96.60;;;;;;4975659;28;20043;-84
2023/01/20 10:35:59;;;;;;;64.03;30.77;;;1.10;96.40;;;;;;4976120;28;20442;-81
2023/01/20 10:38:43;;;;;;;64.70;30.50;;;1.10;96.40;;;;;;4978543;28;20047;-82
2023/01/20 10:41:27;;;;;;;64.27;29.10;;;1.10;96.30;;;;;;4995081;28;20050;-82
2023/01/20 10:43:53;;;;;;;65.77;31.43;;;1.10;96.40;;;;;;4977668;28;20474;-85
2023/01/20 10:46:37;;;;;;;62.17;31.30;;;1.10;96.50;;;;;;4983787;28;20054;-84
2023/01/20 10:49:14;;;;;;;63.70;29.77;;;1.10;96.40;;;;;;4985196;28;20042;-85
2023/01/20 10:52:11;;;;;;;62.17;29.23;;;1.10;96.30;;;;;;4987454;28;20062;-84
2023/01/20 10:54:47;;;;;;;65.33;30.70;;;1.10;96.20;;;;;;4961658;28;20533;-83
2023/01/20 10:57:14;;;;;;;65.63;31.47;;;1.10;96.30;;;;;;4988458;28;20034;-83
2023/01/20 10:59:46;;;;;;;63.47;30.50;;;1.10;96.40;;;;;;4988508;28;20050;-83
2023/01/20 11:02:27;;;;;;;64.30;31.30;;;1.20;96.50;;;;;;4983035;28;20412;-82
2023/01/20 11:05:16;;;;;;;59.07;30.40;;;1.20;96.40;;;;;;4985255;28;20133;-86
2023/01/20 11:07:44;;;;;;;66.03;32.03;;;1.20;96.20;;;;;;4984496;28;20506;-84
2023/01/20 11:10:24;;;;;;;60.40;31.00;;;1.20;96.50;;;;;;4985980;28;20069;-86
2023/01/20 11:12:56;;;;;;;64.23;32.23;;;1.20;96.30;;;;;;5000917;28;20061;-81
2023/01/20 11:15:31;;;;;;;63.97;32.30;;;1.30;96.40;;;;;;4995752;28;20518;-89
2023/01/20 11:18:15;;;;;;;62.03;31.00;;;1.30;96.20;;;;;;4981243;28;20467;-85
2023/01/20 11:20:48;;;;;;;62.43;30.20;;;1.30;96.20;;;;;;4982516;28;20042;-87
2023/01/20 11:23:45;;;;;;;66.37;32.07;;;1.30;96.10;;;;;;4963153;28;20399;-86
2023/01/20 11:26:33;;;;;;;66.07;31.23;;;1.30;96.10;;;;;;4959138;28;20061;-87
2023/01/20 11:29:28;;;;;;;62.47;29.13;;;1.30;96.30;;;;;;4982298;28;20104;-85
2023/01/20 11:32:01;;;;;;;61.70;28.33;;;1.30;96.20;;;;;;4973325;28;20109;-88
2023/01/20 11:34:36;;;;;;;61.27;29.83;;;1.30;96.30;;;;;;4982465;28;20049;-81
2023/01/20 11:37:04;;;;;;;63.50;30.17;;;1.30;96.10;;;;;;4962239;28;20046;-82
2023/01/20 11:39:56;;;;;;;59.17;29.38;;;1.30;96.10;;;;;;4966216;28;20054;-86
2023/01/20 11:42:24;;;;;;;57.67;26.57;;;1.20;96.20;;;;;;4975408;28;20052;-86
2023/01/20 11:45:01;;;;;;;57.93;28.33;;;1.20;96.10;;;;;;4970471;28;20058;-88
2023/01/20 11:47:33;;;;;;;61.60;28.77;;;1.10;96.00;;;;;;4970999;28;20055;-86
2023/01/20 11:50:07;;;;;;;54.90;27.47;;;1.10;96.00;;;;;;4972453;28;20431;-80
2023/01/20 11:52:38;;;;;;;59.73;28.20;;;1.20;96.10;;;;;;4972937;28;20169;-86
2023/01/20 11:55:09;;;;;;;59.60;28.77;;;1.20;96.20;;;;;;4958727;28;20045;-87
2023/01/20 11:57:43;;;;;;;63.67;30.10;;;1.20;96.20;;;;;;4974230;28;20137;-86
2023/01/20 12:00:39;;;;;;;60.73;29.87;;;1.20;96.10;;;;;;4970843;28;20037;-88
2023/01/20 12:03:37;;;;;;;66.63;30.53;;;1.30;96.10;;;;;;4973370;28;20058;-88
2023/01/20 12:06:31;;;;;;;60.22;29.20;;;1.30;96.20;;;;;;4979166;28;20043;-83
2023/01/20 12:09:11;;;;;;;65.20;30.13;;;1.30;96.30;;;;;;4973618;28;20070;-85
2023/01/20 12:12:05;;;;;;;57.80;29.33;;;1.40;96.40;;;;;;4976558;28;20108;-86
2023/01/20 12:14:43;;;;;;;64.53;29.47;;;1.40;96.50;;;;;;4980973;28;20046;-80
2023/01/20 12:17:47;;;;;;;57.78;28.13;;;1.40;96.40;;;;;;4980280;28;20038;-83
2023/01/20 12:20:25;;;;;;;57.20;28.47;;;1.40;96.40;;;;;;4977286;28;20038;-86
2023/01/20 12:23:08;;;;;;;60.75;28.08;;;1.30;96.40;;;;;;4976129;28;20141;-86
2023/01/20 12:25:45;;;;;;;60.30;28.63;;;1.30;96.30;;;;;;4977970;28;20049;-85
2023/01/20 12:28:37;;;;;;;64.40;30.37;;;1.30;96.20;;;;;;4976805;28;20121;-86
2023/01/20 12:31:22;;;;;;;62.20;30.93;;;1.30;96.10;;;;;;4990087;28;20042;-87
2023/01/20 12:34:05;;;;;;;63.63;30.43;;;1.20;96.20;;;;;;4980468;28;20054;-86
2023/01/20 12:37:00;;;;;;;63.07;30.20;;;1.30;96.10;;;;;;4972427;28;20069;-86
2023/01/20 12:40:06;;;;;;;62.73;30.80;;;1.30;96.20;;;;;;4975442;28;20039;-83
2023/01/20 12:42:59;;;;;;;65.67;30.17;;;1.30;96.20;;;;;;4976860;28;20142;-85
2023/01/20 12:46:12;;;;;;;59.23;29.60;;;1.40;96.10;;;;;;4979293;28;20068;-84
2023/01/20 12:49:23;;;;;;;58.00;28.43;;;1.30;95.80;;;;;;4974528;28;20245;-85
2023/01/20 12:52:26;;;;;;;58.50;29.23;;;1.30;96.10;;;;;;4977993;28;20046;-85
2023/01/20 12:55:13;;;;;;;62.07;27.27;;;1.30;96.20;;;;;;4969750;28;20054;-87
2023/01/20 12:58:08;;;;;;;60.77;27.37;;;1.30;95.90;;;;;;4977482;28;20649;-84
2023/01/20 13:00:58;;;;;;;58.83;27.93;;;1.30;95.70;;;;;;4972352;28;20053;-84
2023/01/20 13:03:52;;;;;;;54.70;27.20;;;1.20;95.80;;;;;;4970732;28;20100;-81
2023/01/20 13:06:55;;;;;;;55.93;26.50;;;1.20;95.90;;;;;;4989278;28;20047;-80
2023/01/20 13:27:37;;;;;;;53.03;26.25;;;1.30;95.60;;;;;;5605180;22;20053;-85
2023/01/20 13:30:27;;;;;;;51.92;25.73;;;1.20;95.70;;;;;;5005962;28;20155;-84
2023/01/20 13:33:05;;;;;;;50.13;25.63;;;1.30;95.90;;;;;;5019674;28;20123;-81